Time;durP1;ratioP1;P1;durP2;ratioP2;P2;SDS_P1;SDS_P2;PMS_P1;PMS_P2;Temp;Humidity;BMP_temperature;BMP_pressure;BME280_temperature;BME280_humidity;BME280_pressure;Samples;Min_cycle;Max_cycle;Signal;HPM_P1;HPM_P2
2023/12/28 00:02:04;;;;;;;5.10;2.78;;;8.40;99.90;;;;;;5020394;27;90298;-31
2023/12/28 00:04:30;;;;;;;8.73;2.55;;;8.40;99.90;;;;;;5008923;28;89545;-34
2023/12/28 00:06:56;;;;;;;5.90;4.22;;;8.30;99.90;;;;;;5013783;28;88909;-31
2023/12/28 00:09:21;;;;;;;5.13;2.70;;;8.40;99.90;;;;;;4999918;28;89379;-32
2023/12/28 00:11:47;;;;;;;2.80;2.60;;;8.50;99.90;;;;;;5001519;28;90828;-32
2023/12/28 00:14:13;;;;;;;4.88;3.03;;;8.40;99.90;;;;;;5012673;28;89544;-29
2023/12/28 00:16:38;;;;;;;4.35;2.95;;;8.50;99.90;;;;;;5001860;28;90513;-31
2023/12/28 00:19:04;;;;;;;4.38;3.65;;;8.50;99.90;;;;;;5000064;28;89479;-33
2023/12/28 00:21:32;;;;;;;6.22;3.05;;;8.60;99.90;;;;;;5004765;28;89401;-32
2023/12/28 00:23:58;;;;;;;4.40;3.20;;;8.60;99.90;;;;;;5020970;28;89743;-30
2023/12/28 00:26:24;;;;;;;4.65;4.25;;;8.70;99.90;;;;;;5019960;28;91750;-30
2023/12/28 00:28:49;;;;;;;6.55;3.33;;;8.80;99.90;;;;;;5018338;28;90122;-33
2023/12/28 00:31:15;;;;;;;3.88;3.47;;;8.90;99.90;;;;;;5001715;28;89031;-31
2023/12/28 00:33:40;;;;;;;4.60;3.47;;;8.90;99.90;;;;;;4999406;28;89333;-30
2023/12/28 00:36:07;;;;;;;6.22;3.30;;;8.90;99.90;;;;;;5000504;28;89212;-33
2023/12/28 00:38:33;;;;;;;4.47;3.00;;;8.90;99.90;;;;;;5000472;28;89839;-31
2023/12/28 00:40:58;;;;;;;11.40;3.95;;;9.00;99.90;;;;;;5000740;28;88914;-32
2023/12/28 00:43:24;;;;;;;4.60;3.85;;;9.00;99.90;;;;;;5000551;28;88973;-31
2023/12/28 00:45:50;;;;;;;7.10;4.25;;;9.00;99.90;;;;;;4999155;28;90046;-33
2023/12/28 00:48:15;;;;;;;4.78;3.90;;;9.10;99.90;;;;;;5001034;28;90176;-32
2023/12/28 00:50:41;;;;;;;3.95;3.47;;;9.10;99.90;;;;;;5000611;28;89884;-31
2023/12/28 00:53:06;;;;;;;5.30;3.90;;;9.10;99.90;;;;;;5000525;28;89190;-32
2023/12/28 00:55:32;;;;;;;5.15;3.38;;;9.10;99.90;;;;;;5000691;28;90242;-33
2023/12/28 00:57:57;;;;;;;5.57;4.20;;;9.00;99.90;;;;;;5000238;28;89390;-32
2023/12/28 01:00:23;;;;;;;3.95;3.47;;;9.10;99.90;;;;;;5001295;28;90296;-30
2023/12/28 01:02:49;;;;;;;4.95;4.28;;;9.00;99.90;;;;;;5000694;28;88967;-31
2023/12/28 01:05:15;;;;;;;5.03;3.97;;;9.00;99.90;;;;;;5001467;28;90050;-31
2023/12/28 01:07:40;;;;;;;4.75;3.55;;;9.10;99.90;;;;;;5000241;28;90242;-32
2023/12/28 01:10:06;;;;;;;7.03;3.95;;;9.00;99.90;;;;;;5001107;28;89433;-31
2023/12/28 01:12:33;;;;;;;5.05;3.78;;;9.00;99.90;;;;;;5000904;28;89644;-31
2023/12/28 01:14:58;;;;;;;4.28;3.80;;;9.00;99.90;;;;;;5000521;28;90178;-31
2023/12/28 01:17:24;;;;;;;7.32;3.67;;;9.00;99.90;;;;;;5000524;28;89301;-31
2023/12/28 01:19:50;;;;;;;5.38;4.30;;;9.00;99.90;;;;;;4999874;28;89590;-30
2023/12/28 01:22:15;;;;;;;4.20;3.80;;;9.00;99.90;;;;;;5000105;28;89107;-29
2023/12/28 01:24:41;;;;;;;4.65;2.92;;;8.90;99.90;;;;;;5000646;28;91482;-29
2023/12/28 01:27:06;;;;;;;4.88;3.25;;;8.90;99.90;;;;;;5000146;28;89621;-29
2023/12/28 01:29:33;;;;;;;5.97;4.45;;;8.90;99.90;;;;;;5013710;28;89822;-29
2023/12/28 01:31:59;;;;;;;6.57;4.10;;;8.90;99.90;;;;;;4999545;28;87637;-32
2023/12/28 01:34:25;;;;;;;4.45;3.90;;;8.80;99.90;;;;;;5000460;28;90677;-30
2023/12/28 01:36:50;;;;;;;4.47;3.28;;;8.80;99.90;;;;;;5000065;28;89362;-32
2023/12/28 01:39:18;;;;;;;4.18;3.75;;;8.80;99.90;;;;;;4999326;28;89442;-30
2023/12/28 01:41:44;;;;;;;4.97;4.10;;;8.80;99.90;;;;;;4999936;28;88133;-31
2023/12/28 01:44:09;;;;;;;6.28;3.85;;;8.80;99.90;;;;;;4998707;28;90592;-31
2023/12/28 01:46:35;;;;;;;5.50;4.00;;;8.70;99.90;;;;;;4998809;28;91058;-30
2023/12/28 01:49:01;;;;;;;5.45;3.35;;;8.80;99.90;;;;;;4999262;28;91583;-29
2023/12/28 01:51:27;;;;;;;5.35;3.58;;;8.70;99.90;;;;;;4999730;28;89661;-30
2023/12/28 01:53:53;;;;;;;5.25;3.78;;;8.80;99.90;;;;;;5000005;28;90281;-32
2023/12/28 01:56:20;;;;;;;3.25;2.88;;;8.70;99.90;;;;;;4999020;28;91169;-31
2023/12/28 01:58:47;;;;;;;10.65;4.55;;;8.80;99.90;;;;;;4999921;28;89966;-32
2023/12/28 02:01:13;;;;;;;5.07;4.13;;;8.70;99.90;;;;;;5000301;28;90200;-29
2023/12/28 02:03:39;;;;;;;8.52;4.80;;;8.70;99.90;;;;;;4999612;28;90568;-29
2023/12/28 02:06:07;;;;;;;4.15;3.75;;;8.70;99.90;;;;;;4999016;28;89699;-33
2023/12/28 02:08:32;;;;;;;5.53;3.93;;;8.70;99.90;;;;;;4999145;28;89935;-31
2023/12/28 02:10:58;;;;;;;5.65;3.97;;;8.80;99.90;;;;;;4999014;28;88967;-30
2023/12/28 02:13:25;;;;;;;9.35;3.70;;;8.70;99.90;;;;;;4999070;28;89642;-33
2023/12/28 02:16:06;;;;;;;5.47;4.03;;;8.70;99.90;;;;;;4999514;28;90161;-30
2023/12/28 02:18:37;;;;;;;3.67;3.38;;;8.70;99.90;;;;;;4999163;28;90221;-33
2023/12/28 02:21:06;;;;;;;7.30;4.45;;;8.70;99.90;;;;;;4998754;28;87659;-29
2023/12/28 02:23:33;;;;;;;5.40;3.58;;;8.70;99.90;;;;;;4998297;28;90771;-30
2023/12/28 02:25:58;;;;;;;3.33;2.72;;;8.70;99.90;;;;;;4998351;28;89992;-30
2023/12/28 02:28:24;;;;;;;4.32;3.70;;;8.70;99.90;;;;;;5007500;28;89511;-30
2023/12/28 02:30:50;;;;;;;7.38;4.07;;;8.60;99.90;;;;;;5005864;28;90110;-32
2023/12/28 02:33:24;;;;;;;6.15;3.33;;;8.60;99.90;;;;;;5010034;27;89791;-30
2023/12/28 02:35:53;;;;;;;4.13;3.55;;;8.60;99.90;;;;;;4998271;28;91791;-30
2023/12/28 02:38:19;;;;;;;6.03;4.72;;;8.60;99.90;;;;;;4998946;28;89396;-30
2023/12/28 02:40:46;;;;;;;7.35;3.60;;;8.60;99.90;;;;;;4999241;28;90845;-29
2023/12/28 02:43:12;;;;;;;5.97;4.22;;;8.60;99.90;;;;;;4997745;28;90083;-30
2023/12/28 02:45:38;;;;;;;4.75;4.28;;;8.60;99.90;;;;;;4999976;28;89908;-33
2023/12/28 02:48:05;;;;;;;7.07;3.47;;;8.70;99.90;;;;;;4999217;28;90109;-30
2023/12/28 02:50:31;;;;;;;7.47;3.83;;;8.70;99.90;;;;;;4999814;28;88296;-31
2023/12/28 02:52:57;;;;;;;5.10;4.43;;;8.70;99.90;;;;;;4999053;28;89925;-30
2023/12/28 02:55:24;;;;;;;4.50;4.10;;;8.70;99.90;;;;;;4999341;28;89706;-30
2023/12/28 02:57:50;;;;;;;7.20;3.95;;;8.60;99.90;;;;;;4998696;28;89742;-32
2023/12/28 03:00:16;;;;;;;3.80;3.22;;;8.60;99.90;;;;;;4999683;28;91046;-31
2023/12/28 03:02:42;;;;;;;3.53;3.10;;;8.70;99.90;;;;;;4997353;28;89895;-33
2023/12/28 03:05:08;;;;;;;7.03;5.28;;;8.70;99.90;;;;;;4999057;28;89802;-33
2023/12/28 03:07:34;;;;;;;6.20;4.45;;;8.70;99.90;;;;;;4999758;28;88704;-29
2023/12/28 03:10:00;;;;;;;6.07;3.95;;;8.70;99.90;;;;;;5001809;28;89045;-30
2023/12/28 03:12:27;;;;;;;4.53;3.17;;;8.80;99.90;;;;;;5002802;28;90244;-33
2023/12/28 03:14:52;;;;;;;4.20;3.65;;;8.80;99.90;;;;;;5003791;28;89542;-32
2023/12/28 03:17:18;;;;;;;5.28;4.00;;;8.90;99.90;;;;;;5003108;28;89763;-34
2023/12/28 03:19:43;;;;;;;8.70;4.47;;;8.90;99.90;;;;;;5004280;28;88924;-31
2023/12/28 03:22:09;;;;;;;6.30;4.13;;;8.90;99.90;;;;;;5002130;28;90548;-29
2023/12/28 03:24:37;;;;;;;3.47;3.17;;;9.00;99.90;;;;;;5002753;28;90792;-30
2023/12/28 03:27:04;;;;;;;4.43;3.30;;;9.00;99.90;;;;;;5002755;28;90021;-31
2023/12/28 03:29:29;;;;;;;4.75;3.38;;;9.00;99.90;;;;;;5019293;28;87717;-34
2023/12/28 03:31:55;;;;;;;6.90;3.35;;;9.00;99.90;;;;;;5011000;28;89736;-30
2023/12/28 03:34:22;;;;;;;4.25;3.85;;;9.00;99.90;;;;;;5000879;28;89632;-29
2023/12/28 03:36:48;;;;;;;4.30;3.90;;;9.00;99.90;;;;;;5000909;28;88694;-32
2023/12/28 03:39:14;;;;;;;5.45;3.97;;;9.10;99.90;;;;;;5001550;28;89346;-30
2023/12/28 03:41:39;;;;;;;4.90;3.58;;;9.10;99.90;;;;;;5001730;28;89403;-29
2023/12/28 03:44:05;;;;;;;8.18;3.97;;;9.10;99.90;;;;;;5000741;28;89587;-33
2023/12/28 03:46:30;;;;;;;4.38;3.25;;;9.20;99.90;;;;;;5000661;28;88905;-32
2023/12/28 03:48:56;;;;;;;5.68;3.30;;;9.20;99.90;;;;;;5000260;28;90339;-33
2023/12/28 03:51:22;;;;;;;10.38;5.90;;;9.20;99.90;;;;;;5001967;28;90666;-31
2023/12/28 03:53:47;;;;;;;17.08;3.85;;;9.30;99.90;;;;;;5001146;28;88661;-32
2023/12/28 03:56:24;;;;;;;7.07;3.95;;;9.30;99.90;;;;;;5001467;28;89918;-33
2023/12/28 03:58:50;;;;;;;4.32;3.28;;;9.40;99.90;;;;;;5001885;28;88406;-30
2023/12/28 04:01:20;;;;;;;6.43;3.88;;;9.40;99.90;;;;;;5000603;28;89908;-30
2023/12/28 04:03:47;;;;;;;6.22;3.00;;;9.40;99.90;;;;;;5000989;28;90025;-33
2023/12/28 04:06:13;;;;;;;5.60;3.75;;;9.40;99.90;;;;;;5001949;28;89164;-32
2023/12/28 04:08:40;;;;;;;4.30;3.38;;;9.50;99.90;;;;;;5002018;28;87701;-31
2023/12/28 04:11:06;;;;;;;3.50;3.20;;;9.50;99.90;;;;;;4999624;28;90276;-33
2023/12/28 04:13:31;;;;;;;4.18;3.65;;;9.50;99.90;;;;;;5000464;28;90597;-29
2023/12/28 04:15:57;;;;;;;3.17;2.95;;;9.50;99.90;;;;;;5000932;28;90244;-32
2023/12/28 04:18:23;;;;;;;5.45;3.40;;;9.50;99.90;;;;;;5001008;28;89436;-29
2023/12/28 04:20:48;;;;;;;4.97;3.03;;;9.50;99.90;;;;;;5012811;28;90320;-31
2023/12/28 04:23:14;;;;;;;4.70;3.08;;;9.50;99.90;;;;;;5019329;28;90135;-32
2023/12/28 04:25:40;;;;;;;4.40;3.22;;;9.50;99.90;;;;;;5020312;28;89662;-30
2023/12/28 04:28:07;;;;;;;6.82;3.03;;;9.50;99.90;;;;;;5019824;28;89724;-31
2023/12/28 04:30:33;;;;;;;6.70;4.15;;;9.50;99.90;;;;;;5008801;27;90164;-29
2023/12/28 04:32:59;;;;;;;7.18;3.55;;;9.50;99.90;;;;;;5018638;28;90144;-29
2023/12/28 04:35:25;;;;;;;8.55;3.92;;;9.50;99.90;;;;;;5020244;27;88660;-33
2023/12/28 04:37:50;;;;;;;12.13;3.72;;;9.50;99.90;;;;;;5019382;28;89035;-31
2023/12/28 04:40:17;;;;;;;4.38;3.40;;;9.60;99.90;;;;;;5020095;28;89699;-32
2023/12/28 04:42:43;;;;;;;5.95;3.10;;;9.50;99.90;;;;;;5013326;27;90085;-32
2023/12/28 04:45:09;;;;;;;6.88;3.92;;;9.60;99.90;;;;;;5012828;28;89161;-32
2023/12/28 04:47:35;;;;;;;5.82;3.58;;;9.50;99.90;;;;;;5019561;27;88086;-29
2023/12/28 04:50:03;;;;;;;4.85;2.88;;;9.50;99.90;;;;;;5006098;28;90430;-33
2023/12/28 04:52:28;;;;;;;8.13;3.70;;;9.60;99.90;;;;;;5000554;28;89292;-30
2023/12/28 04:54:54;;;;;;;4.75;3.97;;;9.60;99.90;;;;;;5000032;28;89329;-31
2023/12/28 04:57:19;;;;;;;5.90;2.67;;;9.60;99.90;;;;;;5000814;28;89363;-32
2023/12/28 04:59:45;;;;;;;3.03;2.50;;;9.60;99.90;;;;;;5000306;28;89775;-32
2023/12/28 05:02:11;;;;;;;13.85;2.63;;;9.60;99.90;;;;;;4998649;28;90778;-34
2023/12/28 05:04:39;;;;;;;5.80;3.25;;;9.60;99.90;;;;;;5000297;28;90335;-30
2023/12/28 05:07:05;;;;;;;;;;;9.60;99.90;;;;;;5000984;28;89400;-31
2023/12/28 05:09:31;;;;;;;6.90;3.33;;;9.60;99.90;;;;;;5001923;28;90267;-34
2023/12/28 05:11:56;;;;;;;6.70;3.90;;;9.60;99.90;;;;;;5000769;28;89739;-30
2023/12/28 05:14:22;;;;;;;5.18;3.25;;;9.70;99.90;;;;;;4999839;28;89100;-33
2023/12/28 05:16:48;;;;;;;9.90;3.60;;;9.70;99.90;;;;;;5000157;28;88216;-32
2023/12/28 05:19:13;;;;;;;8.80;3.58;;;9.70;99.90;;;;;;5012469;28;90872;-32
2023/12/28 05:21:39;;;;;;;5.03;3.17;;;9.80;99.90;;;;;;5000071;28;90000;-33
2023/12/28 05:24:05;;;;;;;6.93;3.03;;;9.80;99.90;;;;;;4999553;28;90000;-31
2023/12/28 05:26:30;;;;;;;5.85;3.33;;;9.80;99.90;;;;;;4999029;28;88380;-32
2023/12/28 05:28:56;;;;;;;5.35;2.85;;;9.80;99.90;;;;;;5012157;28;90037;-30
2023/12/28 05:31:22;;;;;;;7.10;3.63;;;9.80;99.90;;;;;;5009398;28;89765;-34
2023/12/28 05:33:47;;;;;;;11.13;3.28;;;9.80;99.90;;;;;;4993776;28;88559;-30
2023/12/28 05:36:13;;;;;;;6.22;3.17;;;9.80;99.90;;;;;;5012810;28;89765;-30
2023/12/28 05:38:38;;;;;;;13.63;3.65;;;9.80;99.90;;;;;;5005940;28;90628;-33
2023/12/28 05:41:04;;;;;;;5.15;2.83;;;9.80;99.90;;;;;;5019287;28;89331;-32
2023/12/28 05:43:30;;;;;;;6.20;2.85;;;9.90;99.90;;;;;;5006995;28;92199;-32
2023/12/28 05:45:55;;;;;;;7.88;3.17;;;9.90;99.90;;;;;;5005251;28;89157;-30
2023/12/28 05:48:21;;;;;;;3.50;2.00;;;9.90;99.90;;;;;;5007130;28;90244;-30
2023/12/28 05:50:46;;;;;;;8.55;3.70;;;9.90;99.90;;;;;;4998779;28;89306;-33
2023/12/28 05:53:14;;;;;;;6.45;2.83;;;9.90;99.90;;;;;;4998809;28;90221;-30
2023/12/28 05:55:40;;;;;;;6.72;4.63;;;9.90;99.90;;;;;;5005265;28;89457;-30
2023/12/28 05:58:06;;;;;;;3.05;2.75;;;10.00;99.90;;;;;;5006372;27;90144;-34
2023/12/28 06:00:32;;;;;;;14.85;4.25;;;10.00;99.90;;;;;;5004800;28;89644;-31
2023/12/28 06:02:57;;;;;;;4.78;2.88;;;10.00;99.90;;;;;;5017875;28;89746;-33
2023/12/28 06:05:23;;;;;;;6.70;3.13;;;10.00;99.90;;;;;;5018992;27;89499;-31
2023/12/28 06:07:48;;;;;;;8.50;3.50;;;10.00;99.90;;;;;;5018785;28;90260;-30
2023/12/28 06:10:14;;;;;;;10.52;2.88;;;10.10;99.90;;;;;;5018193;28;89800;-31
2023/12/28 06:12:40;;;;;;;9.63;4.53;;;10.10;99.90;;;;;;5017239;28;89708;-29
2023/12/28 06:15:06;;;;;;;11.00;2.60;;;10.10;99.90;;;;;;5017199;28;90037;-33
2023/12/28 06:17:32;;;;;;;11.40;3.80;;;10.20;99.90;;;;;;5017189;28;90445;-30
2023/12/28 06:19:57;;;;;;;9.60;3.35;;;10.20;99.90;;;;;;5016797;28;89718;-31
2023/12/28 06:22:27;;;;;;;5.22;3.13;;;10.20;99.90;;;;;;5018888;28;89487;-29
2023/12/28 06:24:53;;;;;;;12.18;3.15;;;10.20;99.90;;;;;;5018129;28;88478;-33
2023/12/28 06:27:19;;;;;;;6.63;3.15;;;10.20;99.90;;;;;;5016524;27;90264;-33
2023/12/28 06:29:44;;;;;;;4.90;2.95;;;10.20;99.90;;;;;;5018593;28;90178;-31
2023/12/28 06:32:10;;;;;;;16.05;4.00;;;10.20;99.90;;;;;;5018635;28;89588;-32
2023/12/28 06:34:36;;;;;;;10.98;3.05;;;10.20;99.90;;;;;;5017684;28;89001;-33
2023/12/28 06:37:01;;;;;;;6.55;3.28;;;10.20;99.90;;;;;;5017970;27;89609;-29
2023/12/28 06:39:27;;;;;;;8.00;4.63;;;10.20;99.90;;;;;;5016444;28;90451;-29
2023/12/28 06:41:52;;;;;;;10.85;3.10;;;10.20;99.90;;;;;;5018322;28;90247;-31
2023/12/28 06:44:18;;;;;;;6.88;2.78;;;10.30;99.90;;;;;;5018062;27;88797;-32
2023/12/28 06:46:44;;;;;;;6.00;2.25;;;10.30;99.90;;;;;;5021236;27;90273;-32
2023/12/28 06:49:09;;;;;;;4.00;3.08;;;10.30;99.90;;;;;;5019935;28;89705;-33
2023/12/28 06:51:35;;;;;;;3.83;2.47;;;10.30;99.90;;;;;;5021135;28;89430;-31
2023/12/28 06:54:01;;;;;;;7.43;2.85;;;10.40;99.90;;;;;;5020178;28;88961;-33
2023/12/28 06:56:26;;;;;;;7.63;2.72;;;10.40;99.90;;;;;;5021036;28;90677;-30
2023/12/28 06:58:52;;;;;;;12.30;3.75;;;10.40;99.90;;;;;;5020721;28;90383;-30
2023/12/28 07:01:18;;;;;;;8.32;2.85;;;10.40;99.90;;;;;;5020852;28;88912;-34
2023/12/28 07:03:43;;;;;;;6.85;2.95;;;10.40;99.90;;;;;;5019189;28;89798;-29
2023/12/28 07:06:09;;;;;;;6.63;2.85;;;10.40;99.90;;;;;;5020943;28;91230;-30
2023/12/28 07:08:35;;;;;;;10.35;4.22;;;10.40;99.90;;;;;;5021036;28;89568;-31
2023/12/28 07:11:02;;;;;;;5.30;2.92;;;10.40;99.90;;;;;;5022652;27;89529;-31
2023/12/28 07:13:27;;;;;;;13.38;3.28;;;10.50;99.90;;;;;;5021401;27;88765;-31
2023/12/28 07:15:53;;;;;;;11.85;3.25;;;10.50;99.90;;;;;;5021532;28;90153;-33
2023/12/28 07:18:19;;;;;;;8.52;3.72;;;10.40;99.90;;;;;;5016396;28;89314;-32
2023/12/28 07:20:44;;;;;;;9.32;4.78;;;10.40;99.90;;;;;;5001635;28;88892;-32
2023/12/28 07:23:10;;;;;;;4.85;3.20;;;10.50;99.90;;;;;;5001950;28;88591;-31
2023/12/28 07:25:36;;;;;;;10.13;3.20;;;10.50;99.90;;;;;;4996631;27;89989;-30
2023/12/28 07:28:01;;;;;;;6.75;2.72;;;10.50;99.90;;;;;;5010074;28;90649;-33
2023/12/28 07:30:28;;;;;;;6.22;2.85;;;10.60;99.90;;;;;;5021348;28;90003;-33
2023/12/28 07:32:53;;;;;;;6.25;2.15;;;10.60;99.90;;;;;;5020676;28;88389;-34
2023/12/28 07:35:19;;;;;;;5.22;3.42;;;10.60;99.90;;;;;;5010101;28;90209;-31
2023/12/28 07:37:44;;;;;;;18.05;4.68;;;10.60;99.90;;;;;;5001372;28;89913;-31
2023/12/28 07:40:12;;;;;;;6.93;2.80;;;10.60;99.90;;;;;;5001224;28;90188;-31
2023/12/28 07:45:35;;;;;;;7.57;4.15;;;10.60;99.90;;;;;;4959854;28;90291;-32
2023/12/28 07:48:00;;;;;;;17.90;3.80;;;10.60;99.90;;;;;;4961297;28;89407;-31
2023/12/28 07:50:26;;;;;;;7.60;3.40;;;10.60;99.90;;;;;;4961765;28;90090;-30
2023/12/28 07:52:51;;;;;;;6.78;3.17;;;10.70;99.90;;;;;;4960469;28;89717;-31
2023/12/28 07:55:17;;;;;;;15.95;5.00;;;10.70;99.90;;;;;;4960626;28;89624;-30
2023/12/28 07:57:43;;;;;;;9.00;4.10;;;10.60;99.90;;;;;;4960652;28;90268;-30
2023/12/28 08:00:09;;;;;;;12.90;4.70;;;10.70;99.90;;;;;;4961529;28;88696;-31
2023/12/28 08:02:35;;;;;;;7.07;3.20;;;10.60;99.90;;;;;;4961621;28;87532;-32
2023/12/28 08:05:01;;;;;;;16.02;3.80;;;10.70;99.90;;;;;;4959848;28;91313;-31
2023/12/28 08:07:26;;;;;;;11.02;5.18;;;10.70;99.90;;;;;;4961510;28;89350;-32
2023/12/28 08:09:53;;;;;;;13.70;4.88;;;10.70;99.90;;;;;;4960387;28;91311;-30
2023/12/28 08:12:20;;;;;;;10.57;3.58;;;10.70;99.90;;;;;;4961555;28;88838;-32
2023/12/28 08:14:46;;;;;;;19.30;5.33;;;10.70;99.90;;;;;;4961220;28;90507;-31
2023/12/28 08:17:12;;;;;;;9.77;4.70;;;10.70;99.90;;;;;;4960056;28;91025;-32
2023/12/28 08:19:38;;;;;;;11.35;3.38;;;10.70;99.90;;;;;;4960399;28;89875;-32
2023/12/28 08:22:03;;;;;;;9.02;3.83;;;10.70;99.90;;;;;;4960719;28;88653;-31
2023/12/28 08:24:29;;;;;;;12.55;3.40;;;10.70;99.90;;;;;;4960507;28;89562;-29
2023/12/28 08:26:59;;;;;;;18.98;5.38;;;10.70;99.90;;;;;;4961041;28;89399;-31
2023/12/28 08:29:24;;;;;;;12.23;2.83;;;10.70;99.90;;;;;;4960531;28;89244;-32
2023/12/28 08:31:50;;;;;;;8.68;3.65;;;10.70;99.90;;;;;;4960834;28;89490;-32
2023/12/28 08:34:16;;;;;;;13.93;4.35;;;10.70;99.90;;;;;;4960217;28;89973;-32
2023/12/28 08:36:41;;;;;;;10.23;3.65;;;10.80;99.90;;;;;;4961249;28;91041;-31
2023/12/28 08:39:07;;;;;;;12.93;2.65;;;10.70;99.90;;;;;;4959897;28;89939;-32
2023/12/28 08:41:33;;;;;;;11.45;4.15;;;10.70;99.90;;;;;;4959887;28;89332;-30
2023/12/28 08:43:59;;;;;;;15.60;4.50;;;10.70;99.90;;;;;;4959292;28;90406;-32
2023/12/28 08:46:24;;;;;;;15.13;4.22;;;10.80;99.90;;;;;;4960784;28;89746;-33
2023/12/28 08:48:50;;;;;;;6.88;3.08;;;10.80;99.90;;;;;;4960438;28;89369;-32
2023/12/28 08:51:16;;;;;;;13.35;3.85;;;10.80;99.90;;;;;;4959536;28;88708;-32
2023/12/28 08:53:42;;;;;;;20.38;3.95;;;10.80;99.90;;;;;;4960503;28;90348;-31
2023/12/28 08:56:17;;;;;;;14.35;4.68;;;10.70;99.90;;;;;;4959793;28;89923;-31
2023/12/28 08:58:43;;;;;;;14.65;3.70;;;10.80;99.90;;;;;;4960594;28;90613;-31
2023/12/28 09:01:19;;;;;;;7.75;3.28;;;10.80;99.90;;;;;;4960723;28;89114;-29
2023/12/28 09:03:45;;;;;;;14.75;5.18;;;10.70;99.90;;;;;;4960091;28;89979;-33
2023/12/28 09:06:11;;;;;;;7.90;4.40;;;10.80;99.90;;;;;;4950875;28;90787;-30
2023/12/28 09:08:36;;;;;;;17.27;4.88;;;10.80;99.90;;;;;;4959540;28;90570;-32
2023/12/28 09:11:02;;;;;;;4.20;3.10;;;10.80;99.90;;;;;;4953016;28;89668;-34
2023/12/28 09:13:27;;;;;;;11.68;5.25;;;10.80;99.90;;;;;;4960222;28;89816;-33
2023/12/28 09:15:53;;;;;;;14.10;4.03;;;10.80;99.90;;;;;;4959414;28;89396;-34
2023/12/28 09:18:19;;;;;;;17.00;4.15;;;10.80;99.90;;;;;;4960306;28;90270;-33
2023/12/28 09:20:44;;;;;;;13.60;4.90;;;10.80;99.90;;;;;;4959851;28;88624;-31
2023/12/28 09:23:10;;;;;;;6.55;2.90;;;10.70;99.90;;;;;;4959571;28;90238;-34
2023/12/28 09:25:38;;;;;;;11.15;3.42;;;10.80;99.90;;;;;;4959553;28;89807;-33
2023/12/28 09:28:05;;;;;;;12.30;4.50;;;10.80;99.90;;;;;;4953811;28;90652;-30
2023/12/28 09:30:30;;;;;;;14.65;3.75;;;10.80;99.90;;;;;;4959764;28;90487;-30
2023/12/28 09:32:56;;;;;;;12.32;3.78;;;10.80;99.90;;;;;;4959066;28;90346;-30
2023/12/28 09:35:21;;;;;;;11.55;5.18;;;10.80;99.90;;;;;;4960347;28;89891;-32
2023/12/28 09:37:48;;;;;;;8.68;4.35;;;10.80;99.90;;;;;;4960228;28;89474;-31
2023/12/28 09:40:15;;;;;;;12.32;4.57;;;10.80;99.90;;;;;;4959370;28;88647;-33
2023/12/28 09:42:48;;;;;;;9.82;3.08;;;10.80;99.90;;;;;;4958729;28;90281;-33
2023/12/28 09:45:14;;;;;;;10.02;5.05;;;10.80;99.90;;;;;;4958628;28;89362;-33
2023/12/28 09:47:42;;;;;;;5.78;3.67;;;10.90;99.90;;;;;;4960147;28;88838;-30
2023/12/28 09:50:12;;;;;;;13.77;4.38;;;10.90;99.90;;;;;;4959851;28;88516;-32
2023/12/28 09:52:38;;;;;;;17.63;4.43;;;10.90;99.90;;;;;;4959864;28;91420;-31
2023/12/28 09:55:04;;;;;;;12.15;3.58;;;10.90;99.90;;;;;;4958108;28;90715;-29
2023/12/28 09:57:30;;;;;;;12.45;4.80;;;10.90;99.90;;;;;;4959338;28;89792;-35
2023/12/28 09:59:57;;;;;;;16.73;4.03;;;11.00;99.90;;;;;;4959612;28;88295;-32
2023/12/28 10:02:23;;;;;;;12.07;3.75;;;11.00;99.90;;;;;;4959543;28;90190;-32
2023/12/28 10:04:48;;;;;;;21.90;4.78;;;11.00;99.90;;;;;;4959351;28;89490;-30
2023/12/28 10:07:14;;;;;;;13.02;5.53;;;11.00;99.90;;;;;;4959348;28;88939;-32
2023/12/28 10:09:40;;;;;;;11.15;3.72;;;11.00;99.90;;;;;;4959108;28;88313;-32
2023/12/28 10:12:06;;;;;;;12.90;3.95;;;11.00;99.90;;;;;;4959434;28;88667;-33
2023/12/28 10:14:32;;;;;;;15.25;5.25;;;11.00;99.90;;;;;;4958661;28;89749;-31
2023/12/28 10:16:57;;;;;;;9.32;3.97;;;11.00;99.90;;;;;;4958874;28;90117;-33
2023/12/28 10:19:23;;;;;;;6.97;3.70;;;11.00;99.90;;;;;;4958307;28;90717;-31
2023/12/28 10:21:49;;;;;;;16.05;4.90;;;11.00;99.90;;;;;;4955554;28;88667;-33
2023/12/28 10:24:15;;;;;;;6.78;3.97;;;11.00;99.90;;;;;;4955648;28;89686;-31
2023/12/28 10:26:40;;;;;;;8.40;3.78;;;11.00;99.90;;;;;;4956651;28;89447;-33
2023/12/28 10:29:06;;;;;;;10.70;3.97;;;10.90;99.90;;;;;;4955937;28;88906;-31
2023/12/28 10:31:31;;;;;;;9.57;4.07;;;11.00;99.90;;;;;;4957107;28;91125;-30
2023/12/28 10:34:02;;;;;;;28.50;5.20;;;11.00;99.90;;;;;;4956383;28;89707;-31
2023/12/28 10:36:28;;;;;;;11.85;4.82;;;10.90;99.90;;;;;;4956600;28;89419;-33
2023/12/28 10:38:54;;;;;;;6.88;3.35;;;10.90;99.90;;;;;;4951223;28;90142;-30
2023/12/28 10:41:21;;;;;;;9.93;4.00;;;11.00;99.90;;;;;;4957221;28;89776;-32
2023/12/28 10:43:57;;;;;;;13.52;4.00;;;11.00;99.90;;;;;;4955591;28;90276;-34
2023/12/28 10:46:27;;;;;;;13.85;6.43;;;11.00;99.90;;;;;;4956802;28;89119;-33
2023/12/28 10:48:59;;;;;;;14.07;4.10;;;11.00;99.90;;;;;;4957413;28;89765;-33
2023/12/28 10:51:27;;;;;;;5.85;3.50;;;10.90;99.90;;;;;;4956096;28;90385;-30
2023/12/28 10:54:05;;;;;;;9.75;3.47;;;11.00;99.90;;;;;;4956017;28;89764;-31
2023/12/28 10:56:44;;;;;;;13.63;4.88;;;11.00;99.90;;;;;;4956853;28;89245;-31
2023/12/28 10:59:32;;;;;;;16.25;4.97;;;10.90;99.90;;;;;;4956114;28;88658;-30
2023/12/28 11:02:01;;;;;;;10.43;3.92;;;11.00;99.90;;;;;;4956287;28;89946;-31
2023/12/28 11:04:43;;;;;;;8.65;4.72;;;11.00;99.90;;;;;;4956664;28;89792;-29
2023/12/28 11:07:15;;;;;;;8.85;3.60;;;10.90;99.90;;;;;;4955611;28;89102;-32
2023/12/28 11:09:42;;;;;;;11.80;3.95;;;10.90;99.90;;;;;;4956419;28;90211;-31
2023/12/28 11:12:11;;;;;;;7.97;3.08;;;10.80;99.90;;;;;;4956256;28;89676;-34
2023/12/28 11:14:41;;;;;;;7.93;4.15;;;10.80;99.90;;;;;;4955918;28;89930;-32
2023/12/28 11:17:08;;;;;;;12.43;3.45;;;10.80;99.90;;;;;;4956494;28;89747;-33
2023/12/28 11:19:35;;;;;;;9.07;2.97;;;10.80;99.90;;;;;;4956509;28;88253;-30
2023/12/28 11:22:03;;;;;;;16.30;4.80;;;10.80;99.90;;;;;;4955398;28;90099;-30
2023/12/28 11:24:30;;;;;;;23.90;5.78;;;10.80;99.90;;;;;;4955662;28;89800;-30
2023/12/28 11:26:57;;;;;;;11.77;3.83;;;10.80;99.90;;;;;;4956242;28;90181;-33
2023/12/28 11:29:26;;;;;;;18.13;4.50;;;10.80;99.90;;;;;;4955861;28;89928;-30
2023/12/28 11:31:58;;;;;;;13.25;4.32;;;10.80;99.90;;;;;;4960037;28;90684;-31
2023/12/28 11:34:33;;;;;;;11.98;6.30;;;10.90;99.90;;;;;;4962429;28;90401;-32
2023/12/28 11:37:07;;;;;;;8.65;3.22;;;10.80;99.90;;;;;;4967013;28;91131;-32
2023/12/28 11:39:35;;;;;;;18.10;4.80;;;10.90;99.90;;;;;;4959854;28;89367;-29
2023/12/28 11:42:04;;;;;;;6.28;2.65;;;10.90;99.90;;;;;;4959176;28;89571;-33
2023/12/28 11:44:38;;;;;;;10.23;3.55;;;10.90;99.90;;;;;;4958396;28;89882;-30
2023/12/28 11:47:21;;;;;;;9.63;4.32;;;10.90;99.90;;;;;;4958946;28;90322;-31
2023/12/28 11:49:51;;;;;;;9.10;4.55;;;10.90;99.90;;;;;;4959509;28;89133;-32
2023/12/28 11:52:30;;;;;;;7.10;2.63;;;10.90;99.90;;;;;;4958268;28;90557;-32
2023/12/28 11:54:56;;;;;;;9.52;3.70;;;10.90;99.90;;;;;;4959279;28;89032;-30
2023/12/28 11:57:23;;;;;;;17.45;6.40;;;11.00;99.90;;;;;;4958019;28;89589;-33
2023/12/28 11:59:55;;;;;;;10.73;3.50;;;11.00;99.90;;;;;;4958210;28;89103;-33
2023/12/28 12:02:20;;;;;;;9.70;4.28;;;10.90;99.90;;;;;;4958344;28;90549;-34
2023/12/28 12:04:46;;;;;;;11.05;4.13;;;10.90;99.90;;;;;;4958250;28;89828;-29
2023/12/28 12:07:11;;;;;;;18.33;5.43;;;10.90;99.90;;;;;;4957622;28;89548;-32
2023/12/28 12:09:37;;;;;;;11.65;5.53;;;10.90;99.90;;;;;;4959461;28;89730;-32
2023/12/28 12:12:03;;;;;;;7.45;3.90;;;10.90;99.90;;;;;;4958847;28;90259;-30
2023/12/28 12:14:30;;;;;;;14.20;4.20;;;10.90;99.90;;;;;;4957728;28;89612;-31
2023/12/28 12:16:58;;;;;;;10.80;3.38;;;10.90;99.90;;;;;;4959241;28;90671;-31
2023/12/28 12:19:25;;;;;;;11.55;4.38;;;10.90;99.90;;;;;;4959317;28;89013;-30
2023/12/28 12:21:55;;;;;;;13.13;4.20;;;10.90;99.90;;;;;;4939868;28;88968;-31
2023/12/28 12:24:22;;;;;;;13.13;3.38;;;10.90;99.90;;;;;;4957619;28;90925;-32
2023/12/28 12:26:49;;;;;;;8.20;3.55;;;10.90;99.90;;;;;;4958129;28;90472;-33
2023/12/28 12:29:14;;;;;;;16.27;4.13;;;10.90;99.90;;;;;;4957800;28;88251;-32
2023/12/28 12:31:41;;;;;;;11.13;4.30;;;10.90;99.90;;;;;;4958346;28;90481;-32
2023/12/28 12:34:10;;;;;;;14.63;4.57;;;10.80;99.90;;;;;;4957999;28;89718;-34
2023/12/28 12:36:37;;;;;;;13.90;3.63;;;10.80;99.90;;;;;;4958394;28;89570;-29
2023/12/28 12:39:06;;;;;;;6.38;3.75;;;10.80;99.90;;;;;;4958125;28;88745;-32
2023/12/28 12:41:33;;;;;;;11.60;4.30;;;10.80;99.90;;;;;;4959308;28;89319;-31
2023/12/28 12:44:00;;;;;;;10.18;4.65;;;10.80;99.90;;;;;;4956014;28;89948;-31
2023/12/28 12:46:26;;;;;;;4.78;2.72;;;10.70;99.90;;;;;;4957776;28;89526;-34
2023/12/28 12:48:56;;;;;;;10.90;4.00;;;10.70;99.90;;;;;;4958442;28;90752;-31